Time;durP1;ratioP1;P1;durP2;ratioP2;P2;SDS_P1;SDS_P2;PMS_P1;PMS_P2;Temp;Humidity;BMP_temperature;BMP_pressure;BME280_temperature;BME280_humidity;BME280_pressure;Samples;Min_cycle;Max_cycle;Signal;HPM_P1;HPM_P2
2023/06/20 00:02:07;;;;;;;4.65;4.07;;;;;;;22.53;60.40;100547.66;5029534;28;20052;-80
2023/06/20 00:04:33;;;;;;;9.15;4.28;;;;;;;22.53;60.51;100550.41;5031164;28;20072;-80
2023/06/20 00:06:58;;;;;;;5.85;3.80;;;;;;;22.48;60.21;100541.94;5031063;28;20053;-79
2023/06/20 00:09:23;;;;;;;12.48;4.20;;;;;;;22.40;60.31;100528.41;5029684;28;20026;-83
2023/06/20 00:11:49;;;;;;;5.68;3.92;;;;;;;22.41;60.42;100540.22;5035353;28;20033;-81
2023/06/20 00:14:14;;;;;;;6.00;4.28;;;;;;;22.33;60.70;100543.97;5036520;28;20036;-84
2023/06/20 00:16:40;;;;;;;5.28;4.13;;;;;;;22.21;60.62;100530.00;5029416;28;20025;-82
2023/06/20 00:19:05;;;;;;;6.20;4.05;;;;;;;22.27;61.31;100543.94;5010646;28;20049;-84
2023/06/20 00:21:31;;;;;;;7.13;3.90;;;;;;;22.17;61.15;100527.84;5028752;28;20083;-81
2023/06/20 00:23:56;;;;;;;8.43;4.05;;;;;;;22.20;61.24;100538.41;5028475;28;20045;-81
2023/06/20 00:26:22;;;;;;;10.50;4.70;;;;;;;22.27;61.42;100554.88;5028606;28;20032;-82
2023/06/20 00:28:49;;;;;;;5.38;4.10;;;;;;;22.24;61.43;100550.66;5028632;28;20060;-82
2023/06/20 00:31:14;;;;;;;5.15;3.47;;;;;;;22.21;61.45;100542.84;5010679;28;20038;-80
2023/06/20 00:33:40;;;;;;;7.65;3.83;;;;;;;22.20;61.51;100552.09;5028601;28;20032;-80
2023/06/20 00:36:06;;;;;;;6.10;4.45;;;;;;;22.18;61.44;100532.28;5028409;28;20025;-80
2023/06/20 00:38:31;;;;;;;7.38;4.00;;;;;;;22.34;61.56;100556.63;5028395;28;20478;-82
2023/06/20 00:40:57;;;;;;;9.43;3.92;;;;;;;22.34;61.50;100551.16;5028474;28;20030;-81
2023/06/20 00:43:22;;;;;;;5.07;4.03;;;;;;;22.35;61.64;100558.34;5028338;28;20049;-80
2023/06/20 00:45:48;;;;;;;4.47;3.60;;;;;;;22.41;61.58;100565.75;5028113;28;20068;-81
2023/06/20 00:48:14;;;;;;;12.18;3.95;;;;;;;22.43;61.13;100560.91;5028312;28;20032;-84
2023/06/20 00:50:40;;;;;;;13.20;4.20;;;;;;;22.42;61.12;100545.50;5028527;28;20021;-81
2023/06/20 00:53:06;;;;;;;4.53;3.92;;;;;;;22.46;61.10;100549.53;4993577;28;20095;-80
2023/06/20 00:55:33;;;;;;;6.10;4.05;;;;;;;22.49;60.91;100560.09;5010775;28;20021;-84
2023/06/20 00:58:00;;;;;;;5.65;4.18;;;;;;;22.50;60.78;100583.72;5028666;28;20033;-80
2023/06/20 01:00:32;;;;;;;8.50;4.30;;;;;;;22.46;60.62;100584.31;5029871;28;20036;-80
2023/06/20 01:03:01;;;;;;;15.88;5.65;;;;;;;22.44;61.12;100573.56;5031215;28;20029;-80
2023/06/20 01:05:29;;;;;;;21.60;6.30;;;;;;;22.31;61.63;100568.00;5031823;28;20467;-81
2023/06/20 01:08:03;;;;;;;12.70;6.07;;;;;;;22.32;61.75;100577.91;5046056;28;20025;-81
2023/06/20 01:11:04;;;;;;;17.05;6.68;;;;;;;22.24;62.39;100587.13;5047488;28;20049;-80
2023/06/20 01:13:49;;;;;;;9.40;5.20;;;;;;;22.06;62.76;100583.22;4990649;28;20046;-80
2023/06/20 01:16:27;;;;;;;9.60;6.15;;;;;;;22.08;63.09;100584.69;4990044;28;20030;-80
2023/06/20 01:19:19;;;;;;;15.90;5.65;;;;;;;22.04;63.06;100588.06;4990093;28;20037;-80
2023/06/20 01:21:52;;;;;;;10.98;5.82;;;;;;;22.00;63.11;100575.81;4989702;28;20101;-80
2023/06/20 01:24:48;;;;;;;11.75;6.13;;;;;;;22.01;63.19;100572.88;4990177;28;20042;-79
2023/06/20 01:27:17;;;;;;;8.25;5.78;;;;;;;21.92;63.03;100567.75;4932236;29;20043;-82
2023/06/20 01:30:10;;;;;;;8.80;5.63;;;;;;;21.95;63.30;100572.81;4938187;29;20515;-80
2023/06/20 01:32:45;;;;;;;10.63;5.45;;;;;;;21.85;63.22;100566.81;4933348;29;20039;-79
2023/06/20 01:35:18;;;;;;;7.45;5.10;;;;;;;21.89;63.44;100584.56;4931802;29;20035;-86
2023/06/20 01:37:46;;;;;;;6.50;5.28;;;;;;;21.87;63.77;100594.81;4931627;29;20062;-80
2023/06/20 01:40:17;;;;;;;8.13;5.22;;;;;;;21.91;63.66;100582.47;4931496;29;20046;-79
2023/06/20 01:42:44;;;;;;;11.63;4.63;;;;;;;21.81;63.35;100576.47;4931547;29;20040;-80
2023/06/20 01:45:12;;;;;;;9.80;5.10;;;;;;;21.84;63.31;100576.06;4931440;29;20040;-81
2023/06/20 01:47:39;;;;;;;5.68;4.47;;;;;;;21.81;63.17;100570.97;4931649;29;20034;-81
2023/06/20 01:50:07;;;;;;;8.25;4.88;;;;;;;21.84;63.58;100582.38;4943319;29;20118;-81
2023/06/20 01:52:34;;;;;;;9.40;4.95;;;;;;;21.78;63.54;100571.38;4950683;29;20143;-81
2023/06/20 01:55:04;;;;;;;7.45;5.22;;;;;;;21.78;63.35;100587.81;4950624;29;20035;-86
2023/06/20 01:57:31;;;;;;;6.68;5.70;;;;;;;21.61;63.08;100557.16;4952373;29;20466;-80
2023/06/20 01:59:58;;;;;;;9.40;5.25;;;;;;;21.83;62.96;100586.19;4952731;29;20619;-80
2023/06/20 02:02:25;;;;;;;11.07;4.68;;;;;;;21.75;63.00;100589.06;4951760;29;20138;-83
2023/06/20 02:04:58;;;;;;;5.65;4.38;;;;;;;21.78;62.59;100585.06;5018397;28;20071;-83
2023/06/20 02:07:25;;;;;;;7.80;5.22;;;;;;;21.74;62.66;100586.53;5037723;28;20171;-84
2023/06/20 02:09:53;;;;;;;12.98;4.07;;;;;;;21.69;62.34;100585.22;5032014;28;20558;-82
2023/06/20 02:12:19;;;;;;;7.93;4.75;;;;;;;21.68;62.89;100583.53;5030843;28;20108;-80
2023/06/20 02:14:47;;;;;;;5.28;4.22;;;;;;;21.63;63.03;100579.69;5030713;28;20028;-80
2023/06/20 02:17:14;;;;;;;14.30;5.20;;;;;;;21.75;62.54;100594.53;5030228;28;20051;-82
2023/06/20 02:19:40;;;;;;;6.60;4.40;;;;;;;21.69;62.42;100574.28;5030509;28;20036;-81
2023/06/20 02:22:08;;;;;;;13.45;4.78;;;;;;;21.84;62.16;100592.50;5030486;28;20132;-83
2023/06/20 02:24:36;;;;;;;7.07;4.70;;;;;;;21.67;61.83;100579.09;5030677;28;20040;-80
2023/06/20 02:27:05;;;;;;;6.40;4.50;;;;;;;21.81;61.88;100598.38;5030662;28;20044;-80
2023/06/20 02:29:34;;;;;;;11.80;5.78;;;;;;;21.83;61.69;100597.16;5030462;28;20111;-81
2023/06/20 02:32:01;;;;;;;13.93;4.65;;;;;;;21.85;61.48;100610.63;5030424;28;20029;-80
2023/06/20 02:34:28;;;;;;;5.57;4.38;;;;;;;21.78;61.42;100604.22;5030442;28;20030;-80
2023/06/20 02:36:58;;;;;;;5.28;4.05;;;;;;;21.82;61.20;100611.03;4996295;28;20029;-83
2023/06/20 02:39:24;;;;;;;6.38;3.95;;;;;;;21.83;61.33;100613.56;5030697;28;20025;-80
2023/06/20 02:41:49;;;;;;;7.03;4.72;;;;;;;21.79;61.14;100603.19;5012510;28;20042;-84
2023/06/20 02:44:15;;;;;;;13.18;5.05;;;;;;;21.61;61.39;100584.53;5029895;28;20127;-81
2023/06/20 02:47:11;;;;;;;9.43;4.30;;;;;;;21.73;61.58;100612.19;5030094;28;20055;-82
2023/06/20 02:49:55;;;;;;;10.18;4.57;;;;;;;21.74;61.01;100614.75;5030875;28;20022;-81
2023/06/20 02:52:39;;;;;;;7.15;4.28;;;;;;;21.67;61.10;100620.19;5031032;28;20029;-82
2023/06/20 02:55:30;;;;;;;7.43;4.38;;;;;;;21.65;61.20;100622.25;5032337;28;20049;-81
2023/06/20 02:57:59;;;;;;;8.07;4.60;;;;;;;21.54;61.18;100603.63;5031932;28;20033;-81
2023/06/20 03:00:25;;;;;;;6.82;4.32;;;;;;;21.64;61.07;100625.19;5032043;28;20037;-82
2023/06/20 03:03:11;;;;;;;4.30;3.53;;;;;;;21.67;60.86;100617.44;5036155;28;20061;-83
2023/06/20 03:05:42;;;;;;;8.82;3.83;;;;;;;21.70;60.84;100618.94;5033990;28;20572;-79
2023/06/20 03:08:09;;;;;;;17.23;4.43;;;;;;;21.67;60.83;100625.66;5012261;28;20053;-81
2023/06/20 03:10:35;;;;;;;11.80;7.35;;;;;;;21.75;61.20;100638.34;5030154;28;20068;-80
2023/06/20 03:13:03;;;;;;;12.45;7.55;;;;;;;21.67;61.79;100628.38;5029820;28;20043;-81
2023/06/20 03:15:29;;;;;;;14.27;7.90;;;;;;;21.66;61.75;100628.56;5030601;28;20500;-81
2023/06/20 03:17:54;;;;;;;16.13;9.10;;;;;;;21.71;62.11;100637.88;5029833;28;20104;-80
2023/06/20 03:20:20;;;;;;;19.30;7.55;;;;;;;21.76;61.80;100641.94;5028735;28;20021;-80
2023/06/20 03:22:45;;;;;;;12.50;7.07;;;;;;;21.70;61.79;100632.63;5029218;28;20041;-83
2023/06/20 03:25:11;;;;;;;27.75;7.85;;;;;;;21.71;61.71;100632.41;5030241;28;20508;-80
2023/06/20 03:27:36;;;;;;;18.52;8.70;;;;;;;21.83;61.72;100649.16;5030561;28;20029;-83
2023/06/20 03:30:03;;;;;;;19.70;9.57;;;;;;;21.83;61.80;100651.06;5035462;28;20036;-82
2023/06/20 03:32:29;;;;;;;22.60;9.85;;;;;;;21.76;61.69;100644.66;5035941;28;20025;-83
2023/06/20 03:34:55;;;;;;;31.50;11.18;;;;;;;21.75;61.82;100641.06;5046243;28;20029;-81
2023/06/20 03:37:20;;;;;;;20.75;10.88;;;;;;;21.82;62.09;100650.22;5051079;28;20025;-80
2023/06/20 03:39:46;;;;;;;22.35;13.25;;;;;;;21.83;62.19;100642.84;5045933;28;20056;-80
2023/06/20 03:42:11;;;;;;;28.45;14.45;;;;;;;21.86;62.54;100640.56;5033519;28;20057;-81
2023/06/20 03:44:37;;;;;;;27.15;13.05;;;;;;;21.68;62.69;100608.16;5031982;28;20029;-82
2023/06/20 03:47:03;;;;;;;39.47;15.45;;;;;;;21.83;63.05;100632.75;5034201;28;20308;-80
2023/06/20 03:49:28;;;;;;;26.08;13.98;;;;;;;21.74;63.19;100620.25;5032682;28;20033;-84
2023/06/20 03:51:54;;;;;;;25.90;12.88;;;;;;;21.89;63.49;100644.81;5032293;28;20036;-80
2023/06/20 03:54:21;;;;;;;27.58;12.23;;;;;;;21.83;63.57;100643.69;5031539;28;20026;-78
2023/06/20 03:56:46;;;;;;;18.75;11.50;;;;;;;21.71;63.25;100626.94;5034063;28;20033;-81
2023/06/20 03:59:14;;;;;;;43.72;12.18;;;;;;;21.85;63.33;100643.47;5044344;28;20031;-84
2023/06/20 04:01:39;;;;;;;21.67;9.80;;;;;;;21.89;63.05;100637.47;5033001;28;20044;-79
2023/06/20 04:04:05;;;;;;;18.70;9.35;;;;;;;21.90;62.39;100624.59;5030131;28;20025;-86
2023/06/20 04:06:31;;;;;;;14.85;8.18;;;;;;;22.05;62.19;100650.00;5030506;28;20060;-87
2023/06/20 04:08:57;;;;;;;25.05;7.57;;;;;;;22.08;62.11;100646.84;5012719;28;20544;-83
2023/06/20 04:11:23;;;;;;;18.35;7.50;;;;;;;22.14;61.71;100646.06;5029143;28;20030;-79
2023/06/20 04:13:49;;;;;;;17.63;7.65;;;;;;;22.13;61.32;100641.66;5029404;28;20096;-86
2023/06/20 04:16:14;;;;;;;13.95;6.28;;;;;;;22.27;61.35;100664.50;5011535;28;20025;-87
2023/06/20 04:18:40;;;;;;;19.70;9.00;;;;;;;22.21;61.39;100652.44;5029440;28;20034;-84
2023/06/20 04:21:07;;;;;;;27.58;9.10;;;;;;;22.39;61.33;100663.75;5030207;28;20421;-82
2023/06/20 04:23:32;;;;;;;25.50;10.23;;;;;;;22.40;61.49;100668.19;5011438;28;20664;-81
2023/06/20 04:25:58;;;;;;;20.90;10.15;;;;;;;22.46;61.34;100675.59;5012191;28;20030;-79
2023/06/20 04:28:23;;;;;;;30.15;11.20;;;;;;;22.48;61.19;100656.22;5011953;28;20045;-82
2023/06/20 04:30:50;;;;;;;24.73;10.05;;;;;;;22.56;61.05;100659.66;5031609;28;20021;-85
2023/06/20 04:33:16;;;;;;;19.40;9.23;;;;;;;22.61;60.80;100648.91;5035077;28;20084;-89
2023/06/20 04:35:41;;;;;;;16.63;8.93;;;;;;;22.77;60.62;100662.34;5033282;28;20115;-84
2023/06/20 04:38:07;;;;;;;26.05;11.88;;;;;;;22.94;60.63;100667.47;5030510;28;20499;-86
2023/06/20 04:40:32;;;;;;;33.72;16.00;;;;;;;22.95;60.38;100670.00;5032952;28;20031;-85
2023/06/20 04:42:58;;;;;;;33.92;16.52;;;;;;;23.04;60.37;100668.78;5036650;28;20103;-84
2023/06/20 04:45:23;;;;;;;32.58;18.42;;;;;;;23.11;60.53;100674.31;5034916;28;20033;-86
2023/06/20 04:47:52;;;;;;;41.30;16.95;;;;;;;23.19;60.50;100677.72;5035632;28;20033;-86
2023/06/20 04:50:17;;;;;;;31.20;14.18;;;;;;;23.25;59.65;100673.28;5035438;28;20029;-85
2023/06/20 04:52:44;;;;;;;26.52;13.88;;;;;;;23.15;59.50;100648.13;5036375;28;20083;-86
2023/06/20 04:55:10;;;;;;;40.70;14.77;;;;;;;23.29;59.66;100671.84;5049048;28;20098;-85
2023/06/20 04:57:35;;;;;;;33.70;13.93;;;;;;;23.18;59.24;100664.19;5053477;28;20037;-87
2023/06/20 05:00:02;;;;;;;42.08;14.52;;;;;;;23.22;59.32;100676.44;5037826;28;20537;-85
2023/06/20 05:02:28;;;;;;;35.72;15.52;;;;;;;23.33;59.13;100679.44;5033271;28;20448;-85
2023/06/20 05:04:54;;;;;;;37.08;15.13;;;;;;;23.27;59.34;100665.72;5032916;28;20034;-86
2023/06/20 05:07:21;;;;;;;47.03;17.48;;;;;;;23.29;59.14;100666.34;5032515;28;20462;-84
2023/06/20 05:09:47;;;;;;;33.30;20.48;;;;;;;23.23;59.42;100654.31;5014990;28;20563;-84
2023/06/20 05:12:13;;;;;;;33.47;20.30;;;;;;;23.40;59.30;100679.50;5032649;28;20106;-85
2023/06/20 05:14:38;;;;;;;41.75;21.75;;;;;;;23.40;59.19;100674.00;5032190;28;20036;-87
2023/06/20 05:17:04;;;;;;;32.65;21.15;;;;;;;23.39;59.67;100680.56;5032427;28;20022;-86
2023/06/20 05:19:29;;;;;;;48.83;22.15;;;;;;;23.33;59.74;100664.91;5014367;28;20026;-85
2023/06/20 05:21:55;;;;;;;32.50;21.42;;;;;;;23.30;59.51;100662.56;5031826;28;20021;-85
2023/06/20 05:24:20;;;;;;;45.13;20.48;;;;;;;23.55;59.76;100684.81;5032145;28;20029;-88
2023/06/20 05:26:45;;;;;;;45.58;21.38;;;;;;;23.57;59.40;100661.59;5032424;28;20104;-81
2023/06/20 05:29:11;;;;;;;39.40;19.30;;;;;;;23.69;58.88;100648.09;5030857;28;20038;-89
2023/06/20 05:31:43;;;;;;;30.88;16.05;;;;;;;23.85;59.04;100678.72;5013609;28;20120;-82
2023/06/20 05:34:08;;;;;;;29.75;14.20;;;;;;;23.85;58.78;100672.41;5031345;28;20081;-88
2023/06/20 05:36:33;;;;;;;23.20;14.15;;;;;;;23.84;58.64;100655.09;5031072;28;20418;-85
2023/06/20 05:38:59;;;;;;;39.67;13.82;;;;;;;23.94;59.06;100681.31;5030909;28;20549;-86
2023/06/20 05:41:25;;;;;;;38.75;12.30;;;;;;;24.03;58.97;100675.41;5031856;28;20037;-80
2023/06/20 05:43:51;;;;;;;20.50;11.93;;;;;;;24.15;58.70;100675.63;5031630;28;20026;-81
2023/06/20 05:46:16;;;;;;;29.35;11.40;;;;;;;24.28;58.67;100678.34;5033119;28;20064;-82
2023/06/20 05:48:43;;;;;;;34.53;11.45;;;;;;;24.38;58.25;100671.38;5034943;28;20029;-92
2023/06/20 05:51:15;;;;;;;19.88;9.95;;;;;;;24.42;58.22;100662.69;5033519;28;20033;-80
2023/06/20 05:53:41;;;;;;;20.40;8.23;;;;;;;24.39;58.22;100663.97;5047893;28;20048;-83
2023/06/20 05:56:10;;;;;;;20.10;7.03;;;;;;;24.33;58.38;100637.34;5104256;23;20065;-84
2023/06/20 05:58:36;;;;;;;15.30;5.70;;;;;;;24.49;58.06;100636.91;5014622;28;20112;-82
2023/06/20 06:01:04;;;;;;;12.95;5.57;;;;;;;24.81;58.06;100674.47;5001126;28;20032;-82
2023/06/20 06:03:32;;;;;;;21.73;6.20;;;;;;;24.83;57.89;100672.34;5011318;28;20395;-82
2023/06/20 06:05:58;;;;;;;9.43;5.05;;;;;;;24.92;57.66;100672.13;5012685;28;20092;-80
2023/06/20 06:08:25;;;;;;;16.08;5.50;;;;;;;25.05;56.71;100672.06;4999861;28;20085;-90
2023/06/20 06:10:52;;;;;;;9.55;4.57;;;;;;;25.05;56.25;100666.56;5014574;28;20040;-89
2023/06/20 06:13:17;;;;;;;8.50;5.47;;;;;;;24.99;55.24;100648.16;5017438;28;20037;-82
2023/06/20 06:15:43;;;;;;;14.68;5.40;;;;;;;25.07;54.67;100667.22;5010276;28;20104;-81
2023/06/20 06:18:09;;;;;;;9.45;5.40;;;;;;;25.03;54.68;100657.69;5016990;28;20026;-89
2023/06/20 06:20:34;;;;;;;6.68;5.38;;;;;;;25.12;54.61;100661.88;5018899;28;20092;-82
2023/06/20 06:23:00;;;;;;;20.52;5.78;;;;;;;25.27;54.55;100674.31;5013254;28;20052;-85
2023/06/20 06:25:25;;;;;;;14.88;5.78;;;;;;;25.33;54.44;100667.06;5014147;28;20026;-82
2023/06/20 06:27:51;;;;;;;11.18;5.88;;;;;;;25.37;54.57;100652.66;5012993;28;20026;-81
2023/06/20 06:30:16;;;;;;;9.88;5.93;;;;;;;25.45;54.05;100646.88;5011622;28;20037;-88
2023/06/20 06:32:44;;;;;;;16.33;5.32;;;;;;;25.53;53.06;100654.06;4996927;28;20026;-84
2023/06/20 06:35:12;;;;;;;8.02;5.03;;;;;;;25.64;52.63;100653.34;5011420;28;20443;-87
2023/06/20 06:37:40;;;;;;;6.53;4.53;;;;;;;25.71;51.51;100659.69;4934111;29;20164;-84
2023/06/20 06:40:07;;;;;;;9.82;4.78;;;;;;;25.78;51.38;100660.44;4934222;29;20039;-88
2023/06/20 06:42:32;;;;;;;8.23;4.90;;;;;;;25.89;49.91;100662.50;4920982;29;20135;-88
2023/06/20 06:44:59;;;;;;;12.70;3.85;;;;;;;25.87;48.53;100647.28;4936352;29;20063;-88
2023/06/20 06:47:24;;;;;;;8.45;4.30;;;;;;;25.90;46.66;100639.38;4941230;29;20039;-85
2023/06/20 06:49:50;;;;;;;13.50;4.03;;;;;;;26.03;46.29;100662.38;4946598;29;20323;-84
2023/06/20 06:52:15;;;;;;;4.28;3.42;;;;;;;26.02;45.89;100647.78;4941910;29;20048;-83
2023/06/20 06:54:41;;;;;;;8.25;3.22;;;;;;;26.10;46.72;100657.66;4931516;29;20144;-82
2023/06/20 06:57:06;;;;;;;9.38;3.28;;;;;;;26.16;46.30;100656.78;4929067;29;20536;-77
2023/06/20 06:59:32;;;;;;;4.90;3.40;;;;;;;26.12;45.45;100631.56;4929794;29;20074;-88
2023/06/20 07:01:58;;;;;;;7.50;4.05;;;;;;;26.28;45.75;100646.72;4916603;29;20119;-87
2023/06/20 07:04:23;;;;;;;49.13;4.15;;;;;;;26.30;45.93;100641.81;4930740;29;20542;-85
2023/06/20 07:06:49;;;;;;;10.45;3.50;;;;;;;26.45;45.65;100656.94;4930429;29;20036;-85
2023/06/20 07:09:14;;;;;;;9.55;4.35;;;;;;;26.43;45.78;100641.69;4990969;28;20034;-83
2023/06/20 07:11:40;;;;;;;15.75;3.95;;;;;;;26.52;45.91;100654.09;5010720;28;20045;-79
2023/06/20 07:14:05;;;;;;;8.35;3.25;;;;;;;26.56;45.58;100658.09;5010992;28;20088;-83
2023/06/20 07:16:32;;;;;;;10.95;3.65;;;;;;;26.51;45.88;100633.94;5010460;28;20029;-84
2023/06/20 07:18:58;;;;;;;8.95;3.90;;;;;;;26.65;45.92;100648.44;5010746;28;20018;-85
2023/06/20 07:21:25;;;;;;;8.45;4.63;;;;;;;26.76;46.49;100647.69;5010606;28;20029;-83
2023/06/20 07:23:50;;;;;;;8.75;3.95;;;;;;;26.67;46.43;100624.22;4958631;28;20124;-83
2023/06/20 07:26:16;;;;;;;6.60;4.03;;;;;;;26.79;46.00;100636.19;5010035;28;20543;-83
2023/06/20 07:28:41;;;;;;;27.05;5.18;;;;;;;26.90;45.81;100645.66;5009819;28;20030;-82
2023/06/20 07:31:07;;;;;;;9.20;4.80;;;;;;;27.06;45.83;100652.47;5009644;28;20036;-85
2023/06/20 07:33:32;;;;;;;8.73;4.72;;;;;;;27.02;45.30;100646.56;4990651;28;20095;-82
2023/06/20 07:36:00;;;;;;;17.35;4.85;;;;;;;27.15;44.54;100645.56;5009868;28;20033;-84
2023/06/20 07:38:25;;;;;;;8.45;4.60;;;;;;;27.23;44.39;100650.75;5010527;28;20038;-87
2023/06/20 07:40:51;;;;;;;19.75;5.78;;;;;;;27.31;43.82;100653.19;5010953;28;20080;-83
2023/06/20 07:43:19;;;;;;;15.85;6.22;;;;;;;27.39;43.37;100663.91;5010541;28;20029;-81
2023/06/20 07:45:44;;;;;;;17.98;7.57;;;;;;;27.39;43.28;100652.88;5018410;28;20136;-82
2023/06/20 07:48:10;;;;;;;24.25;7.85;;;;;;;27.51;43.30;100673.13;5018708;28;20026;-81
2023/06/20 07:50:36;;;;;;;25.08;6.57;;;;;;;27.55;43.48;100669.66;4993581;28;20061;-82
2023/06/20 07:53:02;;;;;;;18.88;4.22;;;;;;;27.65;43.31;100669.09;5009708;28;20028;-84
2023/06/20 07:55:28;;;;;;;13.63;5.65;;;;;;;27.77;42.60;100683.78;5009344;28;20079;-84
2023/06/20 07:57:53;;;;;;;10.75;3.55;;;;;;;27.78;41.16;100668.91;5009131;28;20057;-81
2023/06/20 08:00:20;;;;;;;8.98;3.97;;;;;;;27.67;41.62;100653.13;5009254;28;20030;-82
2023/06/20 08:02:45;;;;;;;14.20;5.22;;;;;;;27.88;41.56;100680.22;5009629;28;20041;-81
2023/06/20 08:05:11;;;;;;;14.45;3.92;;;;;;;27.94;40.35;100689.50;5009027;28;20462;-81
2023/06/20 08:07:37;;;;;;;5.68;4.70;;;;;;;27.88;40.14;100674.69;4992522;28;20034;-82
2023/06/20 08:10:03;;;;;;;7.03;4.38;;;;;;;27.85;40.16;100675.16;5014571;28;20029;-84
2023/06/20 08:12:29;;;;;;;11.35;4.80;;;;;;;27.92;40.39;100670.34;5026784;28;20022;-84
2023/06/20 08:14:54;;;;;;;6.97;3.53;;;;;;;27.99;39.98;100682.16;5028919;28;20074;-85
2023/06/20 08:17:20;;;;;;;17.73;4.45;;;;;;;28.04;40.79;100678.69;5037268;28;20049;-85
2023/06/20 08:19:45;;;;;;;7.38;4.47;;;;;;;28.06;40.79;100671.88;5035552;28;20042;-83
2023/06/20 08:22:12;;;;;;;15.85;3.75;;;;;;;28.09;40.30;100676.94;5023051;28;20061;-83
2023/06/20 08:24:37;;;;;;;19.20;5.13;;;;;;;28.12;40.43;100667.31;5019495;28;20027;-82
2023/06/20 08:27:04;;;;;;;6.38;3.50;;;;;;;28.16;40.12;100662.16;5004603;28;20044;-83
2023/06/20 08:29:29;;;;;;;6.53;3.50;;;;;;;28.25;39.61;100669.00;5002983;28;20088;-82
2023/06/20 08:31:55;;;;;;;8.18;4.95;;;;;;;28.21;39.91;100652.06;5016559;28;20550;-82
2023/06/20 08:34:20;;;;;;;8.20;4.28;;;;;;;28.23;39.78;100654.56;5014674;28;20405;-82
2023/06/20 08:36:46;;;;;;;11.00;4.15;;;;;;;28.36;40.26;100643.25;5014896;28;20030;-83
2023/06/20 08:39:12;;;;;;;26.75;5.85;;;;;;;28.54;39.74;100662.50;5014047;28;20034;-83
2023/06/20 08:41:38;;;;;;;13.48;3.72;;;;;;;28.71;39.79;100652.44;5020962;28;20446;-80
2023/06/20 08:44:03;;;;;;;5.22;3.95;;;;;;;28.90;39.56;100669.72;5022056;28;20456;-82
2023/06/20 08:46:31;;;;;;;14.60;3.72;;;;;;;28.88;39.70;100658.06;5015438;28;20034;-84
2023/06/20 08:48:57;;;;;;;5.45;3.45;;;;;;;28.79;39.25;100656.75;5013364;28;20521;-81
2023/06/20 08:51:26;;;;;;;7.72;3.47;;;;;;;28.81;39.49;100651.78;5013938;28;20509;-83
2023/06/20 08:53:54;;;;;;;10.57;4.10;;;;;;;28.96;39.66;100669.59;5015933;28;20025;-83
2023/06/20 08:56:20;;;;;;;7.75;3.78;;;;;;;29.02;38.79;100643.69;5016043;28;20520;-82
2023/06/20 08:58:46;;;;;;;8.32;3.88;;;;;;;29.11;38.68;100675.44;5012966;28;20038;-82
2023/06/20 09:01:12;;;;;;;9.63;3.58;;;;;;;29.14;38.81;100669.41;5012935;28;20038;-81
2023/06/20 09:03:38;;;;;;;28.15;4.88;;;;;;;29.07;38.97;100674.28;5013838;28;20026;-81
2023/06/20 09:06:03;;;;;;;18.05;4.07;;;;;;;29.09;39.28;100674.84;4996263;28;20068;-82
2023/06/20 09:08:40;;;;;;;9.40;4.85;;;;;;;28.83;39.32;100622.81;5013250;28;20032;-83
2023/06/20 09:11:06;;;;;;;12.55;4.05;;;;;;;29.09;39.45;100663.78;4990145;28;20073;-83
2023/06/20 09:13:31;;;;;;;9.57;4.28;;;;;;;29.09;39.03;100657.38;4989992;28;20031;-83
2023/06/20 09:16:08;;;;;;;6.85;3.60;;;;;;;29.33;38.83;100656.25;4990006;28;20434;-84
2023/06/20 09:18:34;;;;;;;13.27;3.60;;;;;;;29.39;37.96;100659.97;4989907;28;20030;-81
2023/06/20 09:21:03;;;;;;;17.10;4.15;;;;;;;29.35;38.12;100644.94;4991166;28;20038;-82
2023/06/20 09:23:33;;;;;;;12.88;4.47;;;;;;;29.53;38.62;100653.06;4990374;28;20030;-82
2023/06/20 09:26:15;;;;;;;6.60;3.70;;;;;;;29.57;38.01;100635.66;4990854;28;20499;-83
2023/06/20 09:28:41;;;;;;;5.00;3.80;;;;;;;29.77;37.72;100640.75;4989681;28;20030;-83
2023/06/20 09:31:07;;;;;;;6.43;3.90;;;;;;;29.76;37.97;100627.97;4991507;28;20498;-82
2023/06/20 09:33:35;;;;;;;10.68;3.58;;;;;;;29.85;37.61;100643.13;4992017;28;20054;-83
2023/06/20 09:36:14;;;;;;;10.00;4.35;;;;;;;29.83;37.80;100642.53;4974363;28;20080;-83
2023/06/20 09:38:43;;;;;;;11.90;3.30;;;;;;;29.74;37.21;100641.25;4995623;28;20045;-82
2023/06/20 09:41:14;;;;;;;5.90;3.63;;;;;;;29.76;37.14;100633.50;5000464;28;20035;-82
2023/06/20 09:43:39;;;;;;;4.20;3.40;;;;;;;29.85;37.46;100632.03;5013377;28;20406;-82
2023/06/20 09:46:04;;;;;;;5.85;3.22;;;;;;;29.93;37.54;100637.19;5011531;28;20040;-82
2023/06/20 09:48:32;;;;;;;4.55;3.45;;;;;;;30.11;37.70;100631.38;5011364;28;20022;-83
2023/06/20 09:50:59;;;;;;;10.93;3.75;;;;;;;30.17;38.27;100629.53;5011183;28;20060;-84
2023/06/20 09:53:51;;;;;;;5.22;3.60;;;;;;;30.24;38.64;100636.56;5011927;28;20084;-82
2023/06/20 09:56:19;;;;;;;;;;;;;;;30.13;39.17;100629.19;5011828;28;20026;-83
2023/06/20 09:58:46;;;;;;;5.25;3.28;;;;;;;30.09;39.49;100638.28;5011203;28;19965;-84
2023/06/20 10:01:20;;;;;;;7.63;3.22;;;;;;;30.07;38.92;100618.25;5011475;28;20033;-81
2023/06/20 10:03:46;;;;;;;11.50;3.50;;;;;;;30.18;38.70;100626.47;5010347;28;20479;-82
2023/06/20 10:06:13;;;;;;;7.03;3.00;;;;;;;30.34;38.64;100629.50;5013156;28;20053;-83
2023/06/20 10:08:40;;;;;;;8.68;5.15;;;;;;;30.38;37.32;100619.56;5012709;28;20022;-82
2023/06/20 10:11:05;;;;;;;7.25;3.85;;;;;;;30.46;37.49;100627.47;5010511;28;20109;-82
2023/06/20 10:13:31;;;;;;;10.45;3.90;;;;;;;30.43;38.16;100644.66;5011451;28;20114;-82
2023/06/20 10:15:59;;;;;;;9.43;3.35;;;;;;;30.42;37.95;100637.44;5010018;28;20421;-83
2023/06/20 10:18:35;;;;;;;4.63;3.13;;;;;;;30.50;38.31;100646.16;5009805;28;20406;-81
2023/06/20 10:21:04;;;;;;;8.52;3.88;;;;;;;30.52;37.97;100640.38;5010227;28;20033;-82
2023/06/20 10:23:31;;;;;;;5.95;3.60;;;;;;;30.47;37.79;100630.03;5010848;28;20034;-81
2023/06/20 10:26:01;;;;;;;9.38;3.47;;;;;;;30.44;37.74;100638.00;5011130;28;20030;-81
2023/06/20 10:28:27;;;;;;;6.95;3.90;;;;;;;30.33;38.40;100650.03;5011817;28;20128;-81
2023/06/20 10:30:58;;;;;;;13.32;3.55;;;;;;;30.00;37.73;100623.97;4994066;28;20030;-82
2023/06/20 10:33:37;;;;;;;5.30;3.70;;;;;;;30.13;37.69;100643.06;5010732;28;20492;-80
2023/06/20 10:36:10;;;;;;;6.70;3.67;;;;;;;30.12;37.85;100627.50;5013973;28;20119;-84
2023/06/20 10:38:37;;;;;;;8.32;3.67;;;;;;;30.28;37.96;100636.06;5010497;28;20033;-83
2023/06/20 10:41:07;;;;;;;6.03;3.35;;;;;;;30.27;37.72;100629.69;5009531;28;20516;-82
2023/06/20 10:43:58;;;;;;;19.75;3.63;;;;;;;30.34;37.35;100651.69;5009792;28;20123;-83
2023/06/20 10:46:48;;;;;;;17.38;3.47;;;;;;;30.22;35.98;100622.13;5009611;28;20109;-83
2023/06/20 10:49:13;;;;;;;7.65;3.15;;;;;;;30.34;36.04;100644.22;5009540;28;20447;-81
2023/06/20 10:51:57;;;;;;;18.45;4.60;;;;;;;30.34;35.46;100623.94;5009824;28;20064;-83
2023/06/20 10:54:33;;;;;;;8.95;3.83;;;;;;;30.38;35.44;100623.19;5009134;28;20026;-82
2023/06/20 10:56:58;;;;;;;18.90;4.03;;;;;;;30.62;35.64;100626.63;5010168;28;20056;-84
2023/06/20 10:59:24;;;;;;;17.48;6.38;;;;;;;30.74;35.55;100635.66;5010729;28;20026;-81
2023/06/20 11:01:49;;;;;;;17.92;3.67;;;;;;;30.81;35.63;100641.88;5012079;28;20036;-83
2023/06/20 11:04:16;;;;;;;8.80;3.55;;;;;;;30.87;35.87;100635.28;5012235;28;20112;-82
2023/06/20 11:06:42;;;;;;;39.83;6.55;;;;;;;30.99;36.15;100633.25;5010484;28;20029;-81
2023/06/20 11:09:18;;;;;;;28.77;6.38;;;;;;;30.93;38.58;100625.94;5009656;28;20025;-82
2023/06/20 11:11:44;;;;;;;9.73;4.70;;;;;;;30.43;43.57;100633.53;4969613;28;20090;-84
2023/06/20 11:14:14;;;;;;;30.80;5.72;;;;;;;30.18;44.86;100643.13;4968122;28;20031;-81
2023/06/20 11:16:41;;;;;;;25.13;5.97;;;;;;;29.86;45.60;100633.72;4971836;28;20053;-82
2023/06/20 11:19:07;;;;;;;25.88;6.82;;;;;;;29.90;46.27;100640.47;4969741;28;20053;-83
2023/06/20 11:21:33;;;;;;;14.00;5.75;;;;;;;29.61;45.96;100641.56;4973671;28;20414;-86
2023/06/20 11:24:03;;;;;;;32.13;6.05;;;;;;;29.43;46.41;100622.34;4974273;28;20530;-87